createdAt,value
2023-05-11T00:00:08.255Z,1.10
2023-05-11T00:02:12.806Z,0.97
2023-05-11T00:04:17.507Z,0.93
2023-05-11T00:06:20.320Z,1.10
2023-05-11T00:08:23.160Z,1.00
2023-05-11T00:10:25.905Z,1.00
2023-05-11T00:12:28.759Z,0.90
2023-05-11T00:14:32.084Z,0.90
2023-05-11T00:16:34.878Z,1.13
2023-05-11T00:18:38.000Z,1.07
2023-05-11T00:20:42.060Z,1.00
2023-05-11T00:22:45.021Z,1.10
2023-05-11T00:24:47.822Z,0.90
2023-05-11T00:26:51.116Z,0.90
2023-05-11T00:28:53.914Z,1.03
2023-05-11T00:30:57.498Z,0.87
2023-05-11T00:33:00.555Z,0.70
2023-05-11T00:35:03.815Z,1.10
2023-05-11T00:37:08.200Z,1.10
2023-05-11T00:39:12.521Z,1.00
2023-05-11T00:41:15.296Z,1.10
2023-05-11T00:43:18.411Z,0.80
2023-05-11T00:45:21.496Z,1.00
2023-05-11T00:47:24.482Z,0.90
2023-05-11T00:49:27.686Z,0.83
2023-05-11T00:51:32.004Z,0.97
2023-05-11T00:53:36.124Z,0.90
2023-05-11T00:55:39.179Z,0.97
2023-05-11T00:57:41.937Z,1.10
2023-05-11T00:59:45.093Z,1.10
2023-05-11T01:01:47.883Z,1.07
2023-05-11T01:03:50.713Z,1.20
2023-05-11T01:05:56.773Z,1.10
2023-05-11T01:08:01.069Z,1.10
2023-05-11T01:10:10.462Z,1.00
2023-05-11T01:12:15.822Z,1.00
2023-05-11T01:14:21.929Z,0.80
2023-05-11T01:16:25.410Z,0.83
2023-05-11T01:18:30.255Z,0.83
2023-05-11T01:20:33.155Z,0.77
2023-05-11T01:22:50.686Z,0.90
2023-05-11T01:25:02.306Z,0.80
2023-05-11T01:27:23.147Z,0.87
2023-05-11T01:29:42.298Z,0.93
2023-05-11T01:31:48.082Z,0.90
2023-05-11T01:33:52.499Z,0.80
2023-05-11T01:35:57.602Z,0.70
2023-05-11T01:38:00.702Z,0.70
2023-05-11T01:40:06.225Z,0.90
2023-05-11T01:42:10.167Z,1.00
2023-05-11T01:44:15.000Z,0.80
2023-05-11T01:46:18.273Z,1.10
2023-05-11T01:48:24.821Z,0.90
2023-05-11T01:50:27.648Z,0.87
2023-05-11T01:52:32.098Z,0.80
2023-05-11T01:54:35.302Z,0.93
2023-05-11T01:56:39.193Z,1.20
2023-05-11T01:58:42.408Z,1.10
2023-05-11T02:00:45.532Z,0.80
2023-05-11T02:02:48.956Z,0.87
2023-05-11T02:04:53.071Z,1.00
2023-05-11T02:06:55.830Z,0.77
2023-05-11T02:08:59.492Z,0.87
2023-05-11T02:11:02.574Z,1.00
2023-05-11T02:13:05.381Z,1.00
2023-05-11T02:15:09.451Z,1.00
2023-05-11T02:17:12.214Z,0.80
2023-05-11T02:19:15.420Z,1.00
2023-05-11T02:21:20.048Z,0.87
2023-05-11T02:23:23.784Z,1.03
2023-05-11T02:25:26.553Z,0.70
2023-05-11T02:27:29.633Z,1.00
2023-05-11T02:29:32.394Z,0.90
2023-05-11T02:31:38.026Z,0.90
2023-05-11T02:33:42.964Z,1.00
2023-05-11T02:35:48.301Z,0.80
2023-05-11T02:37:52.377Z,1.10
2023-05-11T02:39:59.486Z,0.80
2023-05-11T02:42:06.278Z,0.97
2023-05-11T02:44:09.395Z,1.10
2023-05-11T02:46:14.517Z,0.87
2023-05-11T02:48:20.693Z,0.87
2023-05-11T02:50:24.386Z,0.80
2023-05-11T02:52:27.590Z,0.90
2023-05-11T02:54:31.662Z,1.00
2023-05-11T02:56:34.417Z,1.07
2023-05-11T02:58:37.224Z,1.23
2023-05-11T03:00:40.504Z,1.03
2023-05-11T03:02:43.353Z,1.20
2023-05-11T03:04:46.493Z,1.23
2023-05-11T03:06:49.249Z,0.83
2023-05-11T03:08:52.320Z,0.90
2023-05-11T03:10:56.351Z,1.20
2023-05-11T03:12:59.150Z,0.87
2023-05-11T03:15:01.922Z,1.10
2023-05-11T03:17:05.248Z,1.20
2023-05-11T03:19:08.484Z,0.93
2023-05-11T03:21:11.251Z,0.90
2023-05-11T03:23:13.982Z,1.07
2023-05-11T03:25:17.354Z,1.00
2023-05-11T03:27:21.398Z,1.03
2023-05-11T03:29:24.231Z,0.80
2023-05-11T03:31:26.970Z,1.07
2023-05-11T03:33:30.364Z,1.07
2023-05-11T03:35:34.770Z,1.00
2023-05-11T03:37:38.049Z,0.90
2023-05-11T03:39:40.968Z,1.10
2023-05-11T03:41:44.227Z,1.00
2023-05-11T03:43:50.348Z,1.07
2023-05-11T03:45:54.633Z,0.70
2023-05-11T03:47:57.503Z,0.90
2023-05-11T03:50:00.686Z,1.20
2023-05-11T03:52:03.417Z,1.10
2023-05-11T03:54:06.830Z,1.00
2023-05-11T03:56:09.988Z,1.23
2023-05-11T03:58:13.252Z,0.80
2023-05-11T04:00:18.236Z,0.80
2023-05-11T04:02:22.026Z,0.80
2023-05-11T04:04:29.519Z,1.10
2023-05-11T04:06:32.698Z,1.17
2023-05-11T04:08:35.899Z,0.90
2023-05-11T04:10:39.314Z,0.90
2023-05-11T04:12:42.227Z,1.10
2023-05-11T04:14:45.485Z,1.10
2023-05-11T04:16:49.553Z,0.93
2023-05-11T04:18:52.369Z,1.00
2023-05-11T04:20:55.112Z,1.03
2023-05-11T04:22:58.238Z,1.10
2023-05-11T04:25:01.061Z,1.07
2023-05-11T04:27:04.032Z,1.27
2023-05-11T04:29:06.801Z,1.00
2023-05-11T04:31:10.516Z,1.00
2023-05-11T04:33:14.598Z,1.10
2023-05-11T04:35:17.510Z,1.10
2023-05-11T04:37:20.286Z,1.10
2023-05-11T04:39:23.347Z,1.20
2023-05-11T04:41:26.123Z,1.20
2023-05-11T04:43:28.913Z,1.00
2023-05-11T04:45:31.654Z,1.07
2023-05-11T04:47:34.855Z,1.10
2023-05-11T04:49:39.568Z,1.20
2023-05-11T04:51:42.306Z,1.10
2023-05-11T04:53:45.071Z,0.90
2023-05-11T04:55:48.151Z,1.10
2023-05-11T04:57:50.952Z,0.80
2023-05-11T04:59:53.724Z,1.50
2023-05-11T05:01:56.632Z,1.37
2023-05-11T05:03:59.878Z,1.17
2023-05-11T05:06:04.085Z,1.23
2023-05-11T05:08:07.388Z,1.20
2023-05-11T05:10:12.446Z,1.13
2023-05-11T05:12:15.327Z,1.20
2023-05-11T05:14:18.082Z,1.30
2023-05-11T05:16:20.842Z,1.30
2023-05-11T05:18:24.869Z,1.27
2023-05-11T05:20:27.644Z,1.10
2023-05-11T05:22:32.101Z,1.10
2023-05-11T05:24:35.077Z,1.10
2023-05-11T05:26:38.674Z,1.27
2023-05-11T05:28:41.454Z,1.20
2023-05-11T05:30:44.172Z,1.30
2023-05-11T05:32:47.295Z,1.33
2023-05-11T05:34:50.068Z,1.20
2023-05-11T05:36:55.534Z,1.30
2023-05-11T05:38:59.777Z,1.30
2023-05-11T05:41:03.908Z,1.20
2023-05-11T05:43:06.711Z,1.17
2023-05-11T05:45:12.492Z,1.20
2023-05-11T05:47:22.997Z,1.27
2023-05-11T05:49:29.851Z,1.20
2023-05-11T05:51:34.473Z,1.20
2023-05-11T05:53:37.564Z,1.40
2023-05-11T05:55:41.879Z,1.47
2023-05-11T05:57:45.079Z,1.67
2023-05-11T05:59:47.958Z,1.60
2023-05-11T06:01:50.912Z,1.20
2023-05-11T06:03:53.784Z,1.53
2023-05-11T06:05:57.000Z,1.23
2023-05-11T06:08:10.588Z,1.30
2023-05-11T06:10:18.662Z,1.30
2023-05-11T06:12:23.359Z,1.53
2023-05-11T06:14:38.184Z,1.20
2023-05-11T06:16:41.135Z,1.53
2023-05-11T06:18:43.966Z,1.30
2023-05-11T06:20:46.869Z,1.47
2023-05-11T06:22:50.238Z,1.47
2023-05-11T06:24:53.346Z,1.50
2023-05-11T06:26:56.588Z,1.50
2023-05-11T06:29:00.612Z,1.40
2023-05-11T06:31:04.180Z,1.60
2023-05-11T06:33:06.927Z,1.67
2023-05-11T06:35:10.627Z,1.17
2023-05-11T06:37:20.294Z,1.40
2023-05-11T06:39:23.116Z,1.10
2023-05-11T06:41:25.966Z,1.50
2023-05-11T06:43:29.477Z,1.80
2023-05-11T06:45:33.796Z,1.30
2023-05-11T06:47:37.009Z,1.60
2023-05-11T06:49:40.204Z,1.77
2023-05-11T06:51:42.982Z,1.67
2023-05-11T06:53:45.891Z,1.70
2023-05-11T06:55:49.656Z,1.70
2023-05-11T06:57:52.825Z,1.67
2023-05-11T06:59:56.097Z,1.50
2023-05-11T07:02:00.702Z,1.40
2023-05-11T07:04:05.498Z,1.43
2023-05-11T07:06:08.517Z,1.77
2023-05-11T07:08:13.983Z,1.80
2023-05-11T07:10:26.365Z,1.80
2023-05-11T07:12:31.752Z,1.60
2023-05-11T07:14:34.892Z,1.70
2023-05-11T07:16:38.687Z,1.90
2023-05-11T07:18:43.309Z,1.50
2023-05-11T07:20:50.014Z,1.73
2023-05-11T07:22:53.142Z,1.93
2023-05-11T07:24:56.229Z,1.63
2023-05-11T07:26:58.974Z,1.30
2023-05-11T07:29:01.908Z,1.60
2023-05-11T07:31:06.510Z,1.90
2023-05-11T07:33:09.399Z,1.67
2023-05-11T07:35:15.023Z,1.80
2023-05-11T07:37:18.338Z,2.20
2023-05-11T07:39:21.498Z,1.73
2023-05-11T07:41:26.708Z,1.70
2023-05-11T07:43:29.440Z,1.70
2023-05-11T07:45:33.925Z,1.87
2023-05-11T07:47:37.144Z,1.77
2023-05-11T07:49:43.735Z,1.60
2023-05-11T07:51:48.195Z,1.47
2023-05-11T07:53:51.099Z,1.93
2023-05-11T07:55:53.942Z,1.93
2023-05-11T07:57:56.720Z,1.90
2023-05-11T07:59:59.865Z,1.90
2023-05-11T08:02:02.689Z,1.50
2023-05-11T08:04:05.568Z,2.10
2023-05-11T08:06:09.148Z,2.10
2023-05-11T08:08:13.845Z,2.00
2023-05-11T08:10:16.600Z,1.67
2023-05-11T08:12:20.454Z,1.90
2023-05-11T08:14:23.307Z,1.90
2023-05-11T08:16:26.528Z,2.00
2023-05-11T08:18:29.671Z,1.90
2023-05-11T08:20:32.550Z,1.90
2023-05-11T08:22:35.780Z,1.90
2023-05-11T08:24:40.984Z,1.70
2023-05-11T08:26:44.106Z,1.80
2023-05-11T08:28:46.894Z,1.60
2023-05-11T08:30:55.452Z,1.67
2023-05-11T08:32:59.183Z,1.80
2023-05-11T08:35:02.707Z,2.30
2023-05-11T08:37:05.750Z,1.70
2023-05-11T08:39:11.754Z,1.83
2023-05-11T08:41:15.781Z,1.63
2023-05-11T08:43:19.913Z,1.77
2023-05-11T08:45:22.732Z,1.73
2023-05-11T08:47:25.623Z,1.97
2023-05-11T08:49:28.376Z,1.90
2023-05-11T08:51:32.819Z,1.67
2023-05-11T08:53:35.592Z,2.00
2023-05-11T08:55:38.978Z,1.83
2023-05-11T08:57:43.086Z,1.73
2023-05-11T08:59:46.894Z,1.83
2023-05-11T09:01:49.883Z,1.80
2023-05-11T09:03:52.760Z,1.90
2023-05-11T09:05:55.685Z,1.73
2023-05-11T09:08:02.092Z,2.00
2023-05-11T09:10:05.126Z,1.87
2023-05-11T09:14:13.540Z,1.60
2023-05-11T09:16:35.646Z,1.90
2023-05-11T09:18:47.829Z,1.50
2023-05-11T09:20:50.621Z,2.03
2023-05-11T09:22:53.356Z,1.50
2023-05-11T09:24:56.586Z,1.50
2023-05-11T09:27:09.152Z,1.63
2023-05-11T09:29:13.490Z,1.97
2023-05-11T09:31:35.627Z,1.70
2023-05-11T09:33:38.708Z,1.87
2023-05-11T09:35:41.925Z,1.60
2023-05-11T09:37:44.667Z,1.77
2023-05-11T09:40:14.008Z,1.83
2023-05-11T09:42:15.642Z,1.93
2023-05-11T09:44:19.891Z,1.40
2023-05-11T09:46:22.788Z,1.67
2023-05-11T09:48:27.405Z,1.80
2023-05-11T09:50:33.689Z,1.63
2023-05-11T09:52:36.424Z,1.80
2023-05-11T09:54:43.932Z,1.40
2023-05-11T09:56:49.980Z,1.10
2023-05-11T09:58:57.610Z,1.37
2023-05-11T10:01:01.756Z,1.90
2023-05-11T10:03:05.897Z,1.73
2023-05-11T10:05:12.503Z,1.30
2023-05-11T10:07:25.245Z,1.60
2023-05-11T10:09:28.600Z,1.40
2023-05-11T10:11:31.396Z,1.60
2023-05-11T10:13:34.388Z,1.40
2023-05-11T10:15:37.454Z,1.60
2023-05-11T10:17:44.544Z,1.23
2023-05-11T10:19:47.541Z,1.50
2023-05-11T10:21:50.771Z,1.67
2023-05-11T10:23:54.068Z,1.30
2023-05-11T10:25:57.152Z,1.00
2023-05-11T10:27:59.931Z,1.60
2023-05-11T10:30:04.183Z,1.57
2023-05-11T10:32:08.593Z,1.10
2023-05-11T10:34:13.221Z,1.30
2023-05-11T10:36:19.455Z,1.50
2023-05-11T10:38:22.792Z,1.30
2023-05-11T10:40:26.027Z,1.10
2023-05-11T10:42:37.732Z,1.20
2023-05-11T10:44:57.108Z,1.20
2023-05-11T10:47:11.126Z,1.27
2023-05-11T10:49:22.412Z,1.40
2023-05-11T10:51:42.577Z,1.10
2023-05-11T10:53:55.030Z,1.10
2023-05-11T10:56:06.217Z,1.40
2023-05-11T10:58:10.674Z,1.27
2023-05-11T11:00:35.947Z,1.00
2023-05-11T11:02:39.167Z,1.23
2023-05-11T11:04:46.371Z,1.23
2023-05-11T11:06:50.473Z,1.40
2023-05-11T11:08:58.409Z,1.30
2023-05-11T11:11:01.185Z,1.10
2023-05-11T11:13:05.499Z,1.50
2023-05-11T11:15:09.201Z,1.40
2023-05-11T11:17:23.366Z,1.40
2023-05-11T11:19:39.609Z,1.27
2023-05-11T11:21:44.489Z,1.23
2023-05-11T11:23:51.362Z,1.13
2023-05-11T11:25:55.075Z,1.00
2023-05-11T11:27:59.658Z,1.33
2023-05-11T11:30:17.346Z,1.20
2023-05-11T11:32:27.207Z,1.13
2023-05-11T11:34:34.041Z,1.20
2023-05-11T11:37:04.041Z,1.40
2023-05-11T11:39:07.249Z,1.00
2023-05-11T11:41:09.996Z,1.27
2023-05-11T11:43:13.795Z,1.10
2023-05-11T11:45:27.940Z,1.20
2023-05-11T11:47:30.852Z,1.00
2023-05-11T11:49:33.796Z,1.60
2023-05-11T11:51:37.444Z,1.00
2023-05-11T11:54:01.063Z,1.43
2023-05-11T11:56:04.005Z,1.10
2023-05-11T11:58:10.861Z,1.30
2023-05-11T12:00:14.795Z,1.07
2023-05-11T12:02:19.104Z,1.50
2023-05-11T12:04:33.020Z,1.40
2023-05-11T12:06:38.984Z,1.20
2023-05-11T12:08:42.370Z,1.20
2023-05-11T12:10:48.330Z,0.87
2023-05-11T12:12:51.602Z,0.90
2023-05-11T12:14:54.494Z,1.10
2023-05-11T12:17:03.590Z,0.83
2023-05-11T12:19:06.490Z,0.73
2023-05-11T12:21:09.977Z,1.00
2023-05-11T12:23:14.187Z,1.00
2023-05-11T12:25:18.127Z,1.43
2023-05-11T12:27:22.591Z,1.00
2023-05-11T12:29:26.023Z,1.00
2023-05-11T12:31:29.315Z,0.97
2023-05-11T12:33:32.140Z,0.90
2023-05-11T12:35:35.226Z,1.10
2023-05-11T12:37:37.964Z,0.90
2023-05-11T12:39:40.745Z,1.03
2023-05-11T12:41:44.389Z,0.90
2023-05-11T12:43:48.392Z,1.03
2023-05-11T12:45:51.339Z,1.20
2023-05-11T12:47:54.962Z,1.30
2023-05-11T12:49:57.774Z,1.00
2023-05-11T12:52:03.093Z,0.97
2023-05-11T12:54:05.898Z,0.80
2023-05-11T12:56:08.901Z,1.10
2023-05-11T12:58:13.503Z,1.00
2023-05-11T13:00:20.505Z,1.00
2023-05-11T13:02:24.584Z,1.30
2023-05-11T13:04:31.052Z,1.20
2023-05-11T13:06:33.816Z,1.40
2023-05-11T13:08:36.648Z,1.30
2023-05-11T13:10:39.880Z,0.90
2023-05-11T13:12:49.335Z,1.07
2023-05-11T13:14:52.796Z,1.23
2023-05-11T13:16:56.874Z,0.90
2023-05-11T13:19:01.253Z,1.10
2023-05-11T13:21:07.604Z,0.90
2023-05-11T13:23:11.781Z,1.33
2023-05-11T13:25:15.735Z,1.10
2023-05-11T13:27:19.150Z,1.27
2023-05-11T13:29:22.038Z,1.10
2023-05-11T13:31:24.909Z,1.13
2023-05-11T13:33:29.189Z,1.20
2023-05-11T13:35:32.156Z,1.10
2023-05-11T13:37:34.969Z,1.03
2023-05-11T13:39:38.184Z,0.90
2023-05-11T13:41:41.374Z,1.00
2023-05-11T13:43:45.067Z,0.90
2023-05-11T13:45:49.322Z,1.10
2023-05-11T13:47:52.800Z,0.87
2023-05-11T13:49:56.896Z,1.00
2023-05-11T13:52:00.653Z,1.13
2023-05-11T13:54:03.816Z,1.00
2023-05-11T13:56:06.931Z,1.13
2023-05-11T13:58:10.153Z,0.87
2023-05-11T14:00:14.257Z,0.90
2023-05-11T14:02:18.269Z,1.10
2023-05-11T14:04:21.283Z,0.80
2023-05-11T14:06:26.196Z,1.00
2023-05-11T14:08:29.503Z,1.20
2023-05-11T14:10:32.719Z,1.00
2023-05-11T14:12:35.566Z,1.00
2023-05-11T14:14:38.338Z,1.00
2023-05-11T14:16:41.500Z,1.17
2023-05-11T14:18:44.480Z,0.93
2023-05-11T14:20:47.708Z,1.10
2023-05-11T14:22:52.394Z,1.03
2023-05-11T14:24:56.111Z,1.00
2023-05-11T14:26:59.252Z,1.20
2023-05-11T14:29:02.423Z,0.90
2023-05-11T14:31:05.971Z,1.10
2023-05-11T14:33:09.249Z,1.10
2023-05-11T14:35:12.046Z,0.73
2023-05-11T14:37:14.807Z,1.10
2023-05-11T14:39:18.917Z,0.90
2023-05-11T14:41:22.203Z,1.10
2023-05-11T14:43:25.224Z,1.00
2023-05-11T14:45:28.078Z,0.80
2023-05-11T14:47:30.948Z,0.90
2023-05-11T14:49:34.316Z,1.00
2023-05-11T14:51:39.434Z,1.00
2023-05-11T14:53:42.694Z,1.40
2023-05-11T14:55:47.080Z,1.10
2023-05-11T14:57:51.257Z,1.00
2023-05-11T15:00:00.059Z,0.80
2023-05-11T15:02:05.216Z,1.10
2023-05-11T15:04:15.730Z,1.17
2023-05-11T15:06:21.561Z,0.80
2023-05-11T15:08:30.550Z,0.97
2023-05-11T15:10:34.198Z,1.07
2023-05-11T15:12:38.448Z,1.13
2023-05-11T15:14:44.353Z,0.97
2023-05-11T15:16:48.124Z,1.10
2023-05-11T15:18:51.160Z,1.00
2023-05-11T15:20:53.962Z,0.90
2023-05-11T15:22:56.731Z,1.07
2023-05-11T15:24:59.579Z,0.80
2023-05-11T15:27:02.409Z,1.13
2023-05-11T15:29:06.924Z,0.90
2023-05-11T15:31:09.786Z,1.00
2023-05-11T15:33:12.797Z,1.00
2023-05-11T15:35:17.167Z,1.13
2023-05-11T15:37:23.760Z,0.90
2023-05-11T15:39:26.571Z,1.00
2023-05-11T15:41:30.158Z,0.80
2023-05-11T15:43:33.526Z,1.20
2023-05-11T15:45:37.797Z,1.00
2023-05-11T15:47:41.128Z,0.93
2023-05-11T15:49:44.449Z,0.73
2023-05-11T15:51:47.498Z,0.93
2023-05-11T15:53:50.315Z,1.00
2023-05-11T15:55:55.655Z,0.93
2023-05-11T15:57:59.508Z,1.03
2023-05-11T16:00:04.267Z,1.13
2023-05-11T16:02:08.398Z,1.10
2023-05-11T16:04:17.083Z,1.00
2023-05-11T16:06:23.205Z,0.90
2023-05-11T16:08:27.368Z,0.97
2023-05-11T16:10:30.749Z,1.20
2023-05-11T16:12:33.532Z,0.90
2023-05-11T16:14:36.679Z,0.97
2023-05-11T16:16:40.126Z,1.00
2023-05-11T16:18:46.629Z,1.07
2023-05-11T16:20:49.895Z,0.93
2023-05-11T16:22:52.994Z,1.30
2023-05-11T16:24:55.813Z,1.00
2023-05-11T16:26:59.122Z,0.70
2023-05-11T16:29:02.707Z,1.10
2023-05-11T16:31:06.268Z,1.07
2023-05-11T16:33:09.499Z,1.30
2023-05-11T16:35:14.167Z,0.90
2023-05-11T16:37:18.037Z,1.20
2023-05-11T16:39:21.879Z,1.20
2023-05-11T16:41:26.367Z,1.27
2023-05-11T16:43:30.896Z,1.20
2023-05-11T16:45:34.665Z,1.10
2023-05-11T16:47:37.570Z,1.20
2023-05-11T16:49:40.771Z,1.23
2023-05-11T16:51:45.885Z,1.37
2023-05-11T16:53:49.122Z,1.30
2023-05-11T16:55:52.124Z,1.50
2023-05-11T16:57:55.195Z,1.50
2023-05-11T16:59:58.742Z,1.30
2023-05-11T17:02:07.130Z,1.30
2023-05-11T17:04:10.356Z,1.30
2023-05-11T17:06:17.975Z,1.50
2023-05-11T17:08:25.989Z,1.53
2023-05-11T17:10:29.690Z,1.40
2023-05-11T17:12:35.578Z,1.13
2023-05-11T17:14:38.767Z,1.63
2023-05-11T17:16:43.013Z,1.57
2023-05-11T17:18:46.413Z,1.60
2023-05-11T17:20:53.211Z,1.17
2023-05-11T17:22:56.085Z,1.53
2023-05-11T17:25:00.603Z,1.20
2023-05-11T17:27:03.491Z,1.50
2023-05-11T17:29:06.229Z,1.33
2023-05-11T17:31:10.894Z,1.23
2023-05-11T17:33:13.946Z,1.60
2023-05-11T17:35:17.091Z,1.50
2023-05-11T17:37:31.343Z,1.37
2023-05-11T17:39:35.821Z,1.30
2023-05-11T17:41:39.989Z,1.43
2023-05-11T17:43:42.986Z,1.60
2023-05-11T17:45:47.345Z,1.57
2023-05-11T17:47:53.062Z,1.50
2023-05-11T17:49:56.509Z,1.50
2023-05-11T17:52:02.528Z,1.53
2023-05-11T17:54:05.752Z,1.50
2023-05-11T17:56:12.404Z,1.40
2023-05-11T17:58:17.267Z,1.57
2023-05-11T18:00:23.486Z,1.60
2023-05-11T18:02:26.777Z,1.30
2023-05-11T18:04:29.940Z,1.60
2023-05-11T18:06:33.262Z,1.47
2023-05-11T18:08:38.839Z,1.60
2023-05-11T18:10:42.299Z,1.30
2023-05-11T18:12:46.192Z,1.30
2023-05-11T18:14:50.456Z,1.40
2023-05-11T18:16:53.772Z,1.63
2023-05-11T18:18:57.431Z,1.40
2023-05-11T18:21:06.352Z,1.67
2023-05-11T18:23:09.110Z,1.60
2023-05-11T18:25:13.734Z,1.83
2023-05-11T18:27:16.585Z,1.63
2023-05-11T18:29:21.861Z,1.60
2023-05-11T18:31:28.338Z,1.50
2023-05-11T18:33:31.231Z,1.40
2023-05-11T18:35:34.197Z,1.60
2023-05-11T18:37:37.151Z,1.50
2023-05-11T18:39:39.876Z,1.60
2023-05-11T18:41:42.784Z,1.90
2023-05-11T18:43:45.555Z,1.70
2023-05-11T18:45:50.317Z,1.60
2023-05-11T18:47:54.411Z,1.47
2023-05-11T18:49:58.264Z,1.43
2023-05-11T18:52:01.220Z,1.67
2023-05-11T18:54:06.541Z,1.50
2023-05-11T18:56:11.044Z,1.70
2023-05-11T18:58:13.801Z,1.77
2023-05-11T19:00:16.810Z,1.70
2023-05-11T19:02:20.360Z,1.47
2023-05-11T19:04:24.456Z,1.50
2023-05-11T19:06:28.147Z,1.60
2023-05-11T19:08:30.928Z,1.50
2023-05-11T19:10:34.761Z,1.60
2023-05-11T19:12:38.258Z,1.63
2023-05-11T19:14:41.187Z,1.60
2023-05-11T19:16:43.990Z,1.50
2023-05-11T19:18:47.737Z,1.50
2023-05-11T19:20:51.905Z,1.60
2023-05-11T19:22:54.639Z,1.73
2023-05-11T19:24:57.900Z,1.70
2023-05-11T19:27:07.133Z,1.50
2023-05-11T19:29:12.164Z,1.50
2023-05-11T19:31:15.137Z,1.37
2023-05-11T19:33:18.537Z,1.47
2023-05-11T19:35:21.446Z,1.60
2023-05-11T19:37:25.579Z,1.93
2023-05-11T19:39:28.345Z,1.50
2023-05-11T19:41:31.988Z,1.47
2023-05-11T19:43:35.476Z,1.60
2023-05-11T19:45:38.254Z,1.70
2023-05-11T19:47:41.565Z,1.23
2023-05-11T19:49:44.400Z,1.60
2023-05-11T19:51:47.158Z,1.90
2023-05-11T19:53:51.216Z,1.40
2023-05-11T19:55:54.393Z,1.47
2023-05-11T19:57:57.109Z,1.47
2023-05-11T20:00:01.657Z,1.57
2023-05-11T20:02:04.582Z,1.57
2023-05-11T20:04:07.934Z,1.40
2023-05-11T20:06:10.756Z,1.30
2023-05-11T20:08:14.249Z,1.50
2023-05-11T20:10:21.210Z,1.87
2023-05-11T20:12:24.571Z,1.60
2023-05-11T20:14:27.465Z,1.50
2023-05-11T20:16:31.494Z,1.60
2023-05-11T20:18:45.108Z,1.70
2023-05-11T20:20:47.962Z,1.93
2023-05-11T20:22:50.732Z,2.00
2023-05-11T20:24:53.445Z,1.60
2023-05-11T20:26:57.489Z,1.30
2023-05-11T20:29:00.280Z,1.90
2023-05-11T20:31:03.448Z,1.70
2023-05-11T20:35:12.076Z,1.60
2023-05-11T20:37:16.449Z,1.50
2023-05-11T20:39:19.571Z,1.57
2023-05-11T20:41:23.197Z,2.00
2023-05-11T20:43:27.987Z,1.40
2023-05-11T20:45:30.740Z,1.70
2023-05-11T20:47:33.654Z,1.67
2023-05-11T20:49:39.170Z,1.63
2023-05-11T20:51:42.942Z,1.60
2023-05-11T20:53:46.251Z,1.60
2023-05-11T20:55:49.167Z,1.80
2023-05-11T20:57:51.954Z,1.60
2023-05-11T21:02:02.146Z,1.77
2023-05-11T21:04:08.299Z,1.57
2023-05-11T21:06:11.130Z,1.77
2023-05-11T21:08:15.058Z,2.00
2023-05-11T21:10:17.972Z,1.90
2023-05-11T21:12:21.734Z,1.70
2023-05-11T21:14:24.747Z,1.50
2023-05-11T21:16:29.539Z,1.47
2023-05-11T21:18:34.354Z,1.87
2023-05-11T21:20:37.273Z,1.23
2023-05-11T21:22:40.380Z,1.60
2023-05-11T21:24:43.375Z,1.87
2023-05-11T21:26:48.142Z,1.80
2023-05-11T21:28:51.196Z,1.80
2023-05-11T21:30:54.543Z,1.97
2023-05-11T21:32:58.666Z,1.60
2023-05-11T21:35:01.615Z,1.57
2023-05-11T21:37:04.464Z,1.90
2023-05-11T21:39:07.530Z,1.50
2023-05-11T21:41:11.105Z,1.80
2023-05-11T21:43:14.197Z,1.30
2023-05-11T21:45:19.721Z,1.33
2023-05-11T21:47:23.265Z,1.70
2023-05-11T21:49:27.358Z,1.50
2023-05-11T21:51:30.096Z,1.40
2023-05-11T21:53:33.302Z,1.60
2023-05-11T21:55:36.188Z,1.50
2023-05-11T21:57:38.963Z,1.70
2023-05-11T21:59:41.707Z,2.00
2023-05-11T22:01:45.134Z,1.40
2023-05-11T22:03:48.078Z,1.73
2023-05-11T22:05:52.201Z,1.40
2023-05-11T22:08:03.245Z,1.57
2023-05-11T22:10:13.873Z,1.43
2023-05-11T22:12:17.348Z,1.77
2023-05-11T22:14:23.100Z,1.67
2023-05-11T22:16:26.281Z,1.57
2023-05-11T22:18:29.141Z,1.90
2023-05-11T22:20:32.416Z,1.70
2023-05-11T22:22:36.670Z,1.60
2023-05-11T22:24:39.865Z,1.50
2023-05-11T22:26:42.601Z,1.47
2023-05-11T22:28:45.867Z,1.20
2023-05-11T22:30:48.861Z,1.53
2023-05-11T22:32:51.761Z,1.53
2023-05-11T22:34:58.491Z,1.47
2023-05-11T22:37:01.399Z,1.73
2023-05-11T22:39:06.464Z,1.33
2023-05-11T22:41:09.249Z,1.60
2023-05-11T22:43:12.026Z,1.60
2023-05-11T22:45:15.230Z,1.50
2023-05-11T22:47:18.388Z,1.50
2023-05-11T22:49:21.520Z,1.40
2023-05-11T22:51:24.296Z,1.53
2023-05-11T22:53:27.195Z,1.40
2023-05-11T22:55:31.987Z,1.33
2023-05-11T22:57:34.733Z,1.70
2023-05-11T22:59:38.352Z,1.40
2023-05-11T23:01:41.221Z,1.47
2023-05-11T23:03:44.708Z,1.40
2023-05-11T23:05:48.205Z,1.40
2023-05-11T23:07:51.109Z,1.50
2023-05-11T23:09:54.561Z,1.50
2023-05-11T23:11:59.108Z,1.40
2023-05-11T23:14:03.494Z,1.30
2023-05-11T23:16:06.501Z,1.27
2023-05-11T23:18:09.377Z,1.50
2023-05-11T23:20:14.399Z,1.53
2023-05-11T23:22:17.195Z,1.87
2023-05-11T23:24:20.048Z,1.53
2023-05-11T23:26:23.009Z,1.53
2023-05-11T23:28:27.052Z,1.40
2023-05-11T23:30:29.957Z,1.40
2023-05-11T23:32:32.902Z,1.80
2023-05-11T23:34:37.578Z,1.37
2023-05-11T23:36:40.371Z,1.40
2023-05-11T23:38:43.521Z,1.57
2023-05-11T23:40:46.282Z,1.30
2023-05-11T23:42:49.617Z,1.50
2023-05-11T23:44:53.617Z,1.37
2023-05-11T23:46:56.488Z,1.20
2023-05-11T23:48:59.386Z,1.50
2023-05-11T23:51:02.483Z,1.47
2023-05-11T23:53:05.332Z,1.43
2023-05-11T23:55:09.135Z,1.37
2023-05-11T23:57:11.911Z,1.37
2023-05-11T23:59:15.179Z,1.50
